PAFR METAR and TAF weather

Enter ICAO airport designator
Station Type Date Time Source
PAFR METAR 2018/12/12 08:18 UTC NOAA

PAFR 120818Z AUTO 21011KT 10SM -PL FEW011 BKN028 BKN034 BKN042 OVC055 M04/M06 A2886 RMK AO2 CIG 028V042 BKN028 V SCT SLP782 $


Station Type Date Time Source
PAFR Decoded METAR 2018/12/12 08:18 UTC NOAA

Ft. Richardson / Bryant U. S. Army Heliport, Ak, AK, United States (PAFR) 61-16N 149-39W 115M
Dec 12, 2018 - 03:18 AM EST / 2018.12.12 0818 UTC
Wind: from the SSW (210 degrees) at 13 MPH (11 KT):0
Visibility: 10 mile(s):0
Sky conditions: overcast
Weather: light ice pellets
Temperature: 24 F (-4 C)
Windchill: 12 F (-11 C):1
Dew Point: 21 F (-6 C)
Relative Humidity: 85%
Pressure (altimeter): 28.86 in. Hg (977 hPa)
ob: PAFR 120818Z AUTO 21011KT 10SM -PL FEW011 BKN028 BKN034 BKN042 OVC055 M04/M06 A2886 RMK AO2 CIG 028V042 BKN028 V SCT SLP782
cycle: 8

Station Type Date Time Source
PAFR TAF UTC NOAA

Error!


Example: see airport list